createdAt,value
2016-11-04T00:00:16.947Z,1001.37
2016-11-04T00:01:16.965Z,1001.35
2016-11-04T00:02:16.978Z,1001.3
2016-11-04T00:03:16.996Z,1001.29
2016-11-04T00:04:17.008Z,1001.27
2016-11-04T00:05:17.024Z,1001.32
2016-11-04T00:06:17.047Z,1001.3
2016-11-04T00:07:17.054Z,1001.31
2016-11-04T00:08:17.067Z,1001.32
2016-11-04T00:09:17.085Z,1001.33
2016-11-04T00:10:17.097Z,1001.3
2016-11-04T00:11:17.114Z,1001.32
2016-11-04T00:12:17.129Z,1001.37
2016-11-04T00:13:17.146Z,1001.36
2016-11-04T00:14:17.160Z,1001.4
2016-11-04T00:15:17.175Z,1001.37
2016-11-04T00:16:17.189Z,1001.36
2016-11-04T00:17:17.202Z,1001.38
2016-11-04T00:18:17.217Z,1001.34
2016-11-04T00:19:17.233Z,1001.36
2016-11-04T00:20:17.261Z,1001.35
2016-11-04T00:21:17.262Z,1001.39
2016-11-04T00:22:17.276Z,1001.37
2016-11-04T00:23:17.296Z,1001.37
2016-11-04T00:24:17.310Z,1001.39
2016-11-04T00:25:17.322Z,1001.39
2016-11-04T00:26:17.343Z,1001.32
2016-11-04T00:27:17.355Z,1001.38
2016-11-04T00:28:17.366Z,1001.4
2016-11-04T00:29:17.410Z,1001.43
2016-11-04T00:30:17.400Z,1001.45
2016-11-04T00:31:17.410Z,1001.43
2016-11-04T00:32:17.427Z,1001.42
2016-11-04T00:33:17.442Z,1001.44
2016-11-04T00:34:17.458Z,1001.38
2016-11-04T00:35:17.471Z,1001.35
2016-11-04T00:36:17.488Z,1001.32
2016-11-04T00:37:17.500Z,1001.32
2016-11-04T00:38:17.516Z,1001.3
2016-11-04T00:39:17.533Z,1001.31
2016-11-04T00:40:17.555Z,1001.32
2016-11-04T00:41:17.561Z,1001.31
2016-11-04T00:42:17.575Z,1001.3
2016-11-04T00:43:17.589Z,1001.32
2016-11-04T00:44:17.607Z,1001.31
2016-11-04T00:45:17.618Z,1001.29
2016-11-04T00:46:17.635Z,1001.23
2016-11-04T00:47:17.649Z,1001.27
2016-11-04T00:48:17.666Z,1001.26
2016-11-04T00:49:17.681Z,1001.29
2016-11-04T00:50:17.703Z,1001.25
2016-11-04T00:51:17.710Z,1001.26
2016-11-04T00:52:17.722Z,1001.23
2016-11-04T00:53:17.738Z,1001.28
2016-11-04T00:54:17.759Z,1001.25
2016-11-04T00:55:17.767Z,1001.26
2016-11-04T00:56:17.780Z,1001.26
2016-11-04T00:57:17.795Z,1001.21
2016-11-04T00:58:17.814Z,1001.15
2016-11-04T00:59:17.824Z,1001.14
2016-11-04T01:00:17.844Z,1001.14
2016-11-04T01:01:17.855Z,1001.1
2016-11-04T01:02:17.869Z,1001.09
2016-11-04T01:03:17.884Z,1001.11
2016-11-04T01:04:17.900Z,1001.11
2016-11-04T01:05:17.913Z,1001.09
2016-11-04T01:06:17.934Z,1001.11
2016-11-04T01:07:17.945Z,1001.1
2016-11-04T01:08:17.959Z,1001.08
2016-11-04T01:09:17.974Z,1001.09
2016-11-04T01:10:17.987Z,1001.06
2016-11-04T01:11:18.007Z,1001.07
2016-11-04T01:12:18.020Z,1001.04
2016-11-04T01:13:18.029Z,1001.09
2016-11-04T01:14:18.059Z,1001.05
2016-11-04T01:15:18.062Z,1001.05
2016-11-04T01:16:18.077Z,1001.06
2016-11-04T01:17:18.092Z,1001.02
2016-11-04T01:18:18.108Z,1001.05
2016-11-04T01:19:18.123Z,1001.03
2016-11-04T01:20:18.132Z,1000.99
2016-11-04T01:21:18.151Z,1000.97
2016-11-04T01:22:18.165Z,1000.98
2016-11-04T01:23:18.178Z,1001.01
2016-11-04T01:24:18.196Z,1001
2016-11-04T01:25:18.212Z,1000.95
2016-11-04T01:26:18.229Z,1000.99
2016-11-04T01:27:18.235Z,1000.94
2016-11-04T01:28:18.254Z,1000.9
2016-11-04T01:29:18.268Z,1000.88
2016-11-04T01:30:18.280Z,1000.93
2016-11-04T01:31:18.298Z,1000.94
2016-11-04T01:32:18.310Z,1000.96
2016-11-04T01:33:18.327Z,1000.98
2016-11-04T01:34:18.339Z,1000.99
2016-11-04T01:35:18.358Z,1000.97
2016-11-04T01:36:18.371Z,1000.93
2016-11-04T01:37:18.381Z,1000.93
2016-11-04T01:38:18.396Z,1000.92
2016-11-04T01:39:18.412Z,1000.85
2016-11-04T01:40:18.429Z,1000.77
2016-11-04T01:41:18.443Z,1000.77
2016-11-04T01:42:18.453Z,1000.73
2016-11-04T01:43:18.470Z,1000.73
2016-11-04T01:44:18.495Z,1000.75
2016-11-04T01:45:18.500Z,1000.7
2016-11-04T01:46:18.517Z,1000.74
2016-11-04T01:47:18.529Z,1000.71
2016-11-04T01:48:18.546Z,1000.7
2016-11-04T01:49:18.555Z,1000.67
2016-11-04T01:50:18.576Z,1000.71
2016-11-04T01:51:18.589Z,1000.72
2016-11-04T01:52:18.602Z,1000.73
2016-11-04T01:53:18.620Z,1000.67
2016-11-04T01:54:18.630Z,1000.68
2016-11-04T01:55:18.646Z,1000.69
2016-11-04T01:56:18.664Z,1000.69
2016-11-04T01:57:18.673Z,1000.64
2016-11-04T01:58:18.691Z,1000.65
2016-11-04T01:59:18.704Z,1000.64
2016-11-04T02:00:18.722Z,1000.63
2016-11-04T02:01:18.734Z,1000.66
2016-11-04T02:02:18.747Z,1000.67
2016-11-04T02:03:18.763Z,1000.67
2016-11-04T02:04:18.775Z,1000.63
2016-11-04T02:05:18.791Z,1000.55
2016-11-04T02:06:18.807Z,1000.6
2016-11-04T02:07:18.818Z,1000.62
2016-11-04T02:08:18.843Z,1000.62
2016-11-04T02:09:18.847Z,1000.61
2016-11-04T02:10:18.860Z,1000.57
2016-11-04T02:11:18.881Z,1000.64
2016-11-04T02:12:18.895Z,1000.61
2016-11-04T02:13:18.906Z,1000.62
2016-11-04T02:14:18.925Z,1000.61
2016-11-04T02:15:18.933Z,1000.6
2016-11-04T02:16:18.959Z,1000.64
2016-11-04T02:17:18.965Z,1000.66
2016-11-04T02:18:18.979Z,1000.67
2016-11-04T02:19:18.993Z,1000.67
2016-11-04T02:20:19.008Z,1000.67
2016-11-04T02:21:19.021Z,1000.67
2016-11-04T02:22:19.039Z,1000.63
2016-11-04T02:23:19.056Z,1000.58
2016-11-04T02:24:19.076Z,1000.58
2016-11-04T02:25:19.078Z,1000.54
2016-11-04T02:26:19.097Z,1000.56
2016-11-04T02:27:19.107Z,1000.57
2016-11-04T02:28:19.121Z,1000.57
2016-11-04T02:29:19.139Z,1000.56
2016-11-04T02:30:19.152Z,1000.61
2016-11-04T02:31:19.171Z,1000.6
2016-11-04T02:32:19.187Z,1000.59
2016-11-04T02:33:19.193Z,1000.59
2016-11-04T02:34:19.223Z,1000.59
2016-11-04T02:35:19.225Z,1000.62
2016-11-04T02:36:19.240Z,1000.6
2016-11-04T02:37:19.252Z,1000.57
2016-11-04T02:38:19.269Z,1000.6
2016-11-04T02:39:19.287Z,1000.6
2016-11-04T02:40:19.298Z,1000.57
2016-11-04T02:41:19.316Z,1000.61
2016-11-04T02:42:19.327Z,1000.54
2016-11-04T02:43:19.344Z,1000.56
2016-11-04T02:44:19.356Z,1000.48
2016-11-04T02:45:19.370Z,1000.47
2016-11-04T02:46:19.389Z,1000.42
2016-11-04T02:47:19.399Z,1000.44
2016-11-04T02:48:19.417Z,1000.39
2016-11-04T02:49:19.434Z,1000.36
2016-11-04T02:50:19.443Z,1000.36
2016-11-04T02:51:19.458Z,1000.36
2016-11-04T02:52:19.471Z,1000.36
2016-11-04T02:53:19.487Z,1000.34
2016-11-04T02:54:19.511Z,1000.36
2016-11-04T02:55:19.513Z,1000.35
2016-11-04T02:56:19.533Z,1000.28
2016-11-04T02:57:19.543Z,1000.31
2016-11-04T02:58:19.563Z,1000.28
2016-11-04T02:59:19.577Z,1000.3
2016-11-04T03:00:19.589Z,1000.28
2016-11-04T03:01:19.606Z,1000.26
2016-11-04T03:02:19.617Z,1000.26
2016-11-04T03:03:19.634Z,1000.22
2016-11-04T03:04:19.648Z,1000.17
2016-11-04T03:05:19.665Z,1000.22
2016-11-04T03:06:19.678Z,1000.23
2016-11-04T03:07:19.691Z,1000.18
2016-11-04T03:08:19.709Z,1000.19
2016-11-04T03:09:19.721Z,1000.22
2016-11-04T03:10:19.739Z,1000.18
2016-11-04T03:11:19.753Z,1000.19
2016-11-04T03:12:19.767Z,1000.21
2016-11-04T03:13:19.781Z,1000.25
2016-11-04T03:14:19.791Z,1000.23
2016-11-04T03:15:19.808Z,1000.24
2016-11-04T03:16:19.821Z,1000.25
2016-11-04T03:17:19.840Z,1000.23
2016-11-04T03:18:19.855Z,1000.25
2016-11-04T03:19:19.870Z,1000.22
2016-11-04T03:20:19.884Z,1000.24
2016-11-04T03:21:19.900Z,1000.23
2016-11-04T03:22:19.923Z,1000.24
2016-11-04T03:23:19.927Z,1000.24
2016-11-04T03:24:19.944Z,1000.21
2016-11-04T03:25:19.953Z,1000.2
2016-11-04T03:26:19.975Z,1000.19
2016-11-04T03:27:19.986Z,1000.18
2016-11-04T03:28:20.013Z,1000.21
2016-11-04T03:29:20.017Z,1000.18
2016-11-04T03:30:20.030Z,1000.18
2016-11-04T03:31:20.047Z,1000.21
2016-11-04T03:32:20.059Z,1000.17
2016-11-04T03:33:20.075Z,1000.22
2016-11-04T03:34:20.090Z,1000.22
2016-11-04T03:35:20.102Z,1000.21
2016-11-04T03:36:20.135Z,1000.22
2016-11-04T03:37:20.132Z,1000.23
2016-11-04T03:38:20.150Z,1000.21
2016-11-04T03:39:20.160Z,1000.22
2016-11-04T03:40:20.179Z,1000.17
2016-11-04T03:41:20.191Z,1000.15
2016-11-04T03:42:20.206Z,1000.06
2016-11-04T03:43:20.223Z,1000.08
2016-11-04T03:44:20.232Z,1000.08
2016-11-04T03:45:20.252Z,1000.06
2016-11-04T03:46:20.266Z,1000.06
2016-11-04T03:47:20.279Z,1000.02
2016-11-04T03:48:20.299Z,1000.03
2016-11-04T03:49:20.308Z,1000.01
2016-11-04T03:50:20.323Z,1000.01
2016-11-04T03:51:20.337Z,1000.02
2016-11-04T03:52:20.352Z,1000.03
2016-11-04T03:53:20.364Z,1000.01
2016-11-04T03:54:20.384Z,999.99
2016-11-04T03:55:20.394Z,999.96
2016-11-04T03:56:20.412Z,999.93
2016-11-04T03:57:20.423Z,999.94
2016-11-04T03:58:20.447Z,999.91
2016-11-04T03:59:20.456Z,999.88
2016-11-04T04:01:20.484Z,999.86
2016-11-04T04:02:20.498Z,999.85
2016-11-04T04:03:20.513Z,999.87
2016-11-04T04:04:20.525Z,999.85
2016-11-04T04:05:20.545Z,999.81
2016-11-04T04:06:20.558Z,999.82
2016-11-04T04:07:20.574Z,999.86
2016-11-04T04:08:20.585Z,999.8
2016-11-04T04:09:20.602Z,999.79
2016-11-04T04:10:20.615Z,999.75
2016-11-04T04:11:20.630Z,999.71
2016-11-04T04:12:20.644Z,999.69
2016-11-04T04:13:20.711Z,999.66
2016-11-04T04:14:20.674Z,999.68
2016-11-04T04:15:20.687Z,999.64
2016-11-04T04:16:20.704Z,999.64
2016-11-04T04:17:20.717Z,999.62
2016-11-04T04:18:20.731Z,999.58
2016-11-04T04:19:20.748Z,999.61
2016-11-04T04:20:20.762Z,999.58
2016-11-04T04:21:20.775Z,999.55
2016-11-04T04:22:20.790Z,999.54
2016-11-04T04:23:20.805Z,999.52
2016-11-04T04:24:20.820Z,999.51
2016-11-04T04:25:20.835Z,999.55
2016-11-04T04:26:20.849Z,999.52
2016-11-04T04:27:20.866Z,999.5
2016-11-04T04:28:20.880Z,999.52
2016-11-04T04:29:20.894Z,999.48
2016-11-04T04:30:20.912Z,999.4
2016-11-04T04:31:20.923Z,999.45
2016-11-04T04:32:20.943Z,999.44
2016-11-04T04:33:20.957Z,999.46
2016-11-04T04:34:20.967Z,999.42
2016-11-04T04:35:20.983Z,999.4
2016-11-04T04:36:20.996Z,999.4
2016-11-04T04:37:21.017Z,999.42
2016-11-04T04:38:21.025Z,999.45
2016-11-04T04:39:21.042Z,999.47
2016-11-04T04:40:21.058Z,999.44
2016-11-04T04:41:21.074Z,999.44
2016-11-04T04:42:21.085Z,999.38
2016-11-04T04:43:21.102Z,999.37
2016-11-04T04:44:21.118Z,999.35
2016-11-04T04:45:21.128Z,999.34
2016-11-04T04:46:21.148Z,999.29
2016-11-04T04:47:21.162Z,999.28
2016-11-04T04:48:21.178Z,999.27
2016-11-04T04:49:21.189Z,999.27
2016-11-04T04:50:21.205Z,999.24
2016-11-04T04:51:21.221Z,999.22
2016-11-04T04:52:21.234Z,999.19
2016-11-04T04:53:21.251Z,999.19
2016-11-04T04:54:21.268Z,999.21
2016-11-04T04:55:21.280Z,999.19
2016-11-04T04:56:21.297Z,999.16
2016-11-04T04:57:21.308Z,999.15
2016-11-04T04:58:21.324Z,999.13
2016-11-04T04:59:21.341Z,999.11
2016-11-04T05:00:21.354Z,999.11
2016-11-04T05:01:21.372Z,999.11
2016-11-04T05:02:21.384Z,999.08
2016-11-04T05:03:21.398Z,999.08
2016-11-04T05:04:21.412Z,999.09
2016-11-04T05:05:21.428Z,999.04
2016-11-04T05:06:21.441Z,999.03
2016-11-04T05:07:21.459Z,999.02
2016-11-04T05:08:21.470Z,999.02
2016-11-04T05:09:21.484Z,999.01
2016-11-04T05:10:21.503Z,999
2016-11-04T05:11:21.517Z,998.98
2016-11-04T05:12:21.530Z,998.95
2016-11-04T05:13:21.547Z,998.95
2016-11-04T05:14:21.561Z,998.93
2016-11-04T05:15:21.577Z,998.89
2016-11-04T05:16:21.586Z,998.87
2016-11-04T05:17:21.604Z,998.89
2016-11-04T05:18:21.623Z,998.9
2016-11-04T05:19:21.635Z,998.92
2016-11-04T05:20:21.646Z,998.91
2016-11-04T05:21:21.668Z,998.9
2016-11-04T05:22:21.680Z,998.87
2016-11-04T05:23:21.694Z,998.88
2016-11-04T05:24:21.711Z,998.85
2016-11-04T05:25:21.726Z,998.83
2016-11-04T05:26:21.740Z,998.85
2016-11-04T05:27:21.750Z,998.87
2016-11-04T05:28:21.769Z,998.85
2016-11-04T05:29:21.784Z,998.84
2016-11-04T05:30:21.799Z,998.84
2016-11-04T05:31:21.814Z,998.84
2016-11-04T05:32:21.830Z,998.82
2016-11-04T05:33:21.844Z,998.85
2016-11-04T05:34:21.857Z,998.87
2016-11-04T05:35:21.869Z,998.84
2016-11-04T05:36:21.890Z,998.85
2016-11-04T05:37:21.902Z,998.82
2016-11-04T05:38:21.913Z,998.86
2016-11-04T05:39:21.933Z,998.86
2016-11-04T05:40:21.946Z,998.87
2016-11-04T05:41:21.963Z,998.84
2016-11-04T05:42:21.974Z,998.87
2016-11-04T05:43:21.989Z,998.87
2016-11-04T05:44:22.003Z,998.83
2016-11-04T05:45:22.023Z,998.87
2016-11-04T05:46:22.033Z,998.88
2016-11-04T05:47:22.049Z,998.85
2016-11-04T05:48:22.066Z,998.84
2016-11-04T05:49:22.079Z,998.84
2016-11-04T05:50:22.095Z,998.82
2016-11-04T05:51:22.104Z,998.79
2016-11-04T05:52:22.126Z,998.76
2016-11-04T05:53:22.139Z,998.77
2016-11-04T05:54:22.150Z,998.77
2016-11-04T05:55:22.168Z,998.8
2016-11-04T05:56:22.181Z,998.78
2016-11-04T05:57:22.196Z,998.71
2016-11-04T05:58:22.209Z,998.8
2016-11-04T05:59:22.228Z,998.75
2016-11-04T06:00:22.241Z,998.77
2016-11-04T06:01:22.254Z,998.77
2016-11-04T06:02:22.268Z,998.77
2016-11-04T06:03:22.285Z,998.75
2016-11-04T06:04:22.299Z,998.75
2016-11-04T06:05:22.311Z,998.71
2016-11-04T06:06:22.331Z,998.71
2016-11-04T06:07:22.341Z,998.73
2016-11-04T06:08:22.358Z,998.74
2016-11-04T06:09:22.372Z,998.73
2016-11-04T06:10:22.389Z,998.73
2016-11-04T06:11:22.401Z,998.7
2016-11-04T06:12:22.413Z,998.71
2016-11-04T06:13:22.431Z,998.72
2016-11-04T06:14:22.450Z,998.73
2016-11-04T06:15:22.464Z,998.73
2016-11-04T06:16:22.476Z,998.7
2016-11-04T06:17:22.493Z,998.69
2016-11-04T06:18:22.506Z,998.68
2016-11-04T06:19:22.519Z,998.68
2016-11-04T06:20:22.536Z,998.64
2016-11-04T06:21:22.550Z,998.65
2016-11-04T06:22:22.564Z,998.65
2016-11-04T06:23:22.579Z,998.62
2016-11-04T06:24:22.596Z,998.6
2016-11-04T06:25:22.610Z,998.6
2016-11-04T06:26:22.626Z,998.56
2016-11-04T06:27:22.638Z,998.54
2016-11-04T06:28:22.655Z,998.6
2016-11-04T06:29:22.666Z,998.61
2016-11-04T06:30:22.686Z,998.58
2016-11-04T06:31:22.698Z,998.66
2016-11-04T06:32:22.712Z,998.62
2016-11-04T06:33:22.726Z,998.57
2016-11-04T06:34:22.744Z,998.62
2016-11-04T06:35:22.756Z,998.59
2016-11-04T06:36:22.773Z,998.65
2016-11-04T06:37:22.789Z,998.6
2016-11-04T06:38:22.804Z,998.6
2016-11-04T06:39:22.815Z,998.61
2016-11-04T06:40:22.829Z,998.59
2016-11-04T06:41:22.844Z,998.6
2016-11-04T06:42:22.860Z,998.6
2016-11-04T06:43:22.874Z,998.61
2016-11-04T06:44:22.890Z,998.63
2016-11-04T06:45:22.905Z,998.68
2016-11-04T06:46:22.918Z,998.66
2016-11-04T06:47:22.935Z,998.68
2016-11-04T06:48:22.950Z,998.7
2016-11-04T06:49:22.961Z,998.71
2016-11-04T06:50:22.980Z,998.72
2016-11-04T06:51:22.994Z,998.68
2016-11-04T06:52:23.011Z,998.69
2016-11-04T06:53:23.020Z,998.69
2016-11-04T06:54:23.036Z,998.64
2016-11-04T06:55:23.052Z,998.68
2016-11-04T06:56:23.069Z,998.7
2016-11-04T06:57:23.081Z,998.72
2016-11-04T06:58:23.101Z,998.72
2016-11-04T06:59:23.109Z,998.64
2016-11-04T07:00:23.125Z,998.63
2016-11-04T07:01:23.144Z,998.61
2016-11-04T07:02:23.158Z,998.69
2016-11-04T07:03:23.169Z,998.64
2016-11-04T07:04:23.186Z,998.64
2016-11-04T07:05:23.200Z,998.66
2016-11-04T07:06:23.217Z,998.59
2016-11-04T07:07:23.227Z,998.56
2016-11-04T07:08:23.245Z,998.58
2016-11-04T07:09:23.260Z,998.58
2016-11-04T07:10:23.276Z,998.59
2016-11-04T07:11:23.289Z,998.58
2016-11-04T07:12:23.306Z,998.57
2016-11-04T07:13:23.318Z,998.54
2016-11-04T07:14:23.335Z,998.56
2016-11-04T07:15:23.349Z,998.58
2016-11-04T07:16:23.366Z,998.57
2016-11-04T07:17:23.378Z,998.54
2016-11-04T07:18:23.391Z,998.57
2016-11-04T07:19:23.405Z,998.61
2016-11-04T07:20:23.418Z,998.64
2016-11-04T07:21:23.434Z,998.6
2016-11-04T07:22:23.448Z,998.54
2016-11-04T07:23:23.465Z,998.55
2016-11-04T07:24:23.478Z,998.57
2016-11-04T07:25:23.495Z,998.54
2016-11-04T07:26:23.509Z,998.55
2016-11-04T07:27:23.523Z,998.51
2016-11-04T07:28:23.539Z,998.55
2016-11-04T07:29:23.552Z,998.56
2016-11-04T07:30:23.566Z,998.53
2016-11-04T07:31:23.582Z,998.54
2016-11-04T07:32:23.598Z,998.5
2016-11-04T07:33:23.609Z,998.6
2016-11-04T07:34:23.625Z,998.57
2016-11-04T07:35:23.639Z,998.57
2016-11-04T07:36:23.659Z,998.56
2016-11-04T07:37:23.669Z,998.58
2016-11-04T07:38:23.685Z,998.53
2016-11-04T07:39:23.700Z,998.53
2016-11-04T07:40:23.711Z,998.47
2016-11-04T07:41:23.729Z,998.48
2016-11-04T07:42:23.741Z,998.47
2016-11-04T07:43:23.756Z,998.43
2016-11-04T07:44:23.773Z,998.41
2016-11-04T07:45:23.789Z,998.39
2016-11-04T07:46:23.804Z,998.28
2016-11-04T07:47:23.817Z,998.32
2016-11-04T07:48:23.830Z,998.35
2016-11-04T07:49:23.849Z,998.4
2016-11-04T07:50:23.864Z,998.39
2016-11-04T07:51:23.878Z,998.36
2016-11-04T07:52:23.893Z,998.37
2016-11-04T07:53:23.909Z,998.4
2016-11-04T07:54:23.923Z,998.42
2016-11-04T07:55:23.940Z,998.42
2016-11-04T07:56:23.953Z,998.43
2016-11-04T07:57:23.967Z,998.44
2016-11-04T07:58:23.983Z,998.43
2016-11-04T07:59:23.999Z,998.47
2016-11-04T08:00:24.013Z,998.43
2016-11-04T08:01:24.027Z,998.43
2016-11-04T08:02:24.041Z,998.44
2016-11-04T08:03:24.060Z,998.41
2016-11-04T08:04:24.073Z,998.41
2016-11-04T08:05:24.087Z,998.33
2016-11-04T08:06:24.103Z,998.39
2016-11-04T08:07:24.118Z,998.38
2016-11-04T08:08:24.133Z,998.37
2016-11-04T08:09:24.149Z,998.35
2016-11-04T08:10:24.166Z,998.35
2016-11-04T08:11:24.177Z,998.31
2016-11-04T08:12:24.193Z,998.29
2016-11-04T08:13:24.207Z,998.31
2016-11-04T08:14:24.226Z,998.27
2016-11-04T08:15:24.236Z,998.26
2016-11-04T08:16:24.252Z,998.31
2016-11-04T08:17:24.266Z,998.28
2016-11-04T08:18:24.285Z,998.28
2016-11-04T08:19:24.296Z,998.29
2016-11-04T08:20:24.313Z,998.27
2016-11-04T08:21:24.326Z,998.28
2016-11-04T08:22:24.346Z,998.23
2016-11-04T08:23:24.355Z,998.27
2016-11-04T08:24:24.376Z,998.24
2016-11-04T08:25:24.392Z,998.25
2016-11-04T08:26:24.402Z,998.29
2016-11-04T08:27:24.419Z,998.24
2016-11-04T08:28:24.435Z,998.32
2016-11-04T08:29:24.452Z,998.32
2016-11-04T08:30:24.465Z,998.32
2016-11-04T08:31:24.483Z,998.32
2016-11-04T08:32:24.495Z,998.26
2016-11-04T08:33:24.511Z,998.21
2016-11-04T08:34:24.523Z,998.17
2016-11-04T08:35:24.541Z,998.13
2016-11-04T08:36:24.556Z,998.1
2016-11-04T08:37:24.571Z,998.11
2016-11-04T08:38:24.587Z,998.16
2016-11-04T08:39:24.601Z,998.19
2016-11-04T08:40:24.615Z,998.2
2016-11-04T08:41:24.632Z,998.21
2016-11-04T08:42:24.646Z,998.24
2016-11-04T08:43:24.661Z,998.18
2016-11-04T08:44:24.678Z,998.18
2016-11-04T08:45:24.692Z,998.15
2016-11-04T08:46:24.706Z,998.17
2016-11-04T08:47:24.723Z,998.15
2016-11-04T08:48:24.736Z,998.11
2016-11-04T08:49:24.751Z,998.05
2016-11-04T08:50:24.770Z,998.07
2016-11-04T08:51:24.782Z,997.99
2016-11-04T08:52:24.796Z,998
2016-11-04T08:53:24.815Z,997.99
2016-11-04T08:54:24.832Z,997.96
2016-11-04T08:55:24.846Z,998
2016-11-04T08:56:24.859Z,997.99
2016-11-04T08:57:24.875Z,997.98
2016-11-04T08:58:24.891Z,998
2016-11-04T08:59:24.902Z,998
2016-11-04T09:00:24.920Z,998.03
2016-11-04T09:01:24.971Z,997.95
2016-11-04T09:02:24.952Z,997.96
2016-11-04T09:03:24.965Z,997.95
2016-11-04T09:04:24.979Z,997.99
2016-11-04T09:05:24.996Z,997.98
2016-11-04T09:06:25.011Z,997.97
2016-11-04T09:07:25.025Z,998
2016-11-04T09:08:25.042Z,998
2016-11-04T09:09:25.059Z,998
2016-11-04T09:10:25.069Z,997.99
2016-11-04T09:11:25.085Z,997.99
2016-11-04T09:12:25.105Z,997.97
2016-11-04T09:13:25.118Z,998
2016-11-04T09:14:25.136Z,998
2016-11-04T09:15:25.148Z,998
2016-11-04T09:16:25.162Z,997.97
2016-11-04T09:17:25.179Z,997.95
2016-11-04T09:18:25.192Z,997.97
2016-11-04T09:19:25.212Z,997.93
2016-11-04T09:20:25.230Z,997.96
2016-11-04T09:21:25.242Z,997.95
2016-11-04T09:22:25.256Z,997.93
2016-11-04T09:23:25.273Z,997.88
2016-11-04T09:24:25.287Z,997.92
2016-11-04T09:25:25.300Z,997.89
2016-11-04T09:26:25.316Z,997.87
2016-11-04T09:27:25.333Z,997.88
2016-11-04T09:28:25.349Z,997.87
2016-11-04T09:29:25.364Z,997.85
2016-11-04T09:30:25.375Z,997.86
2016-11-04T09:31:25.394Z,997.82
2016-11-04T09:32:25.408Z,997.83
2016-11-04T09:33:25.426Z,997.79
2016-11-04T09:34:25.435Z,997.78
2016-11-04T09:35:25.453Z,997.77
2016-11-04T09:36:25.472Z,997.71
2016-11-04T09:37:25.487Z,997.72
2016-11-04T09:38:25.504Z,997.71
2016-11-04T09:39:25.520Z,997.69
2016-11-04T09:40:25.533Z,997.72
2016-11-04T09:41:25.550Z,997.67
2016-11-04T09:42:25.567Z,997.64
2016-11-04T09:43:25.580Z,997.68
2016-11-04T09:44:25.594Z,997.65
2016-11-04T09:45:25.609Z,997.71
2016-11-04T09:46:25.627Z,997.73
2016-11-04T09:47:25.642Z,997.75
2016-11-04T09:48:25.654Z,997.74
2016-11-04T09:49:25.673Z,997.71
2016-11-04T09:50:25.687Z,997.72
2016-11-04T09:51:25.703Z,997.63
2016-11-04T09:52:25.721Z,997.67
2016-11-04T09:53:25.734Z,997.65
2016-11-04T09:54:25.751Z,997.67
2016-11-04T09:55:25.765Z,997.67
2016-11-04T09:56:25.782Z,997.69
2016-11-04T09:57:25.795Z,997.65
2016-11-04T09:58:25.812Z,997.71
2016-11-04T09:59:25.824Z,997.74
2016-11-04T10:00:25.842Z,997.73
2016-11-04T10:01:25.861Z,997.69
2016-11-04T10:02:25.872Z,997.71
2016-11-04T10:03:25.893Z,997.69
2016-11-04T10:04:25.908Z,997.65
2016-11-04T10:05:25.919Z,997.6
2016-11-04T10:06:25.936Z,997.57
2016-11-04T10:07:25.956Z,997.53
2016-11-04T10:08:25.972Z,997.48
2016-11-04T10:09:25.983Z,997.5
2016-11-04T10:10:26.003Z,997.5
2016-11-04T10:11:26.016Z,997.52
2016-11-04T10:12:26.032Z,997.49
2016-11-04T10:13:26.050Z,997.47
2016-11-04T10:14:26.066Z,997.43
2016-11-04T10:15:26.079Z,997.46
2016-11-04T10:16:26.094Z,997.41
2016-11-04T10:17:26.113Z,997.37
2016-11-04T10:18:26.130Z,997.34
2016-11-04T10:19:26.144Z,997.36
2016-11-04T10:20:26.158Z,997.31
2016-11-04T10:21:26.173Z,997.35
2016-11-04T10:22:26.192Z,997.34
2016-11-04T10:23:26.208Z,997.32
2016-11-04T10:24:26.225Z,997.3
2016-11-04T10:25:26.241Z,997.3
2016-11-04T10:26:26.258Z,997.23
2016-11-04T10:27:26.274Z,997.23
2016-11-04T10:28:26.291Z,997.23
2016-11-04T10:29:26.308Z,997.19
2016-11-04T10:30:26.320Z,997.2
2016-11-04T10:31:26.336Z,997.13
2016-11-04T10:32:26.354Z,997.08
2016-11-04T10:33:26.373Z,997.03
2016-11-04T10:34:26.384Z,997.07
2016-11-04T10:35:26.403Z,997.02
2016-11-04T10:36:26.419Z,996.95
2016-11-04T10:37:26.438Z,996.96
2016-11-04T10:38:26.453Z,996.96
2016-11-04T10:39:26.471Z,996.92
2016-11-04T10:40:26.486Z,996.93
2016-11-04T10:41:26.498Z,996.94
2016-11-04T10:42:26.523Z,996.92
2016-11-04T10:43:26.535Z,996.95
2016-11-04T10:44:26.548Z,996.92
2016-11-04T10:45:26.564Z,996.93
2016-11-04T10:46:26.582Z,996.95
2016-11-04T10:47:26.598Z,996.9
2016-11-04T10:48:26.615Z,996.88
2016-11-04T10:49:26.629Z,996.86
2016-11-04T10:50:26.646Z,996.89
2016-11-04T10:51:26.666Z,996.89
2016-11-04T10:52:26.681Z,996.87
2016-11-04T10:53:26.695Z,996.87
2016-11-04T10:54:26.713Z,996.84
2016-11-04T10:55:26.731Z,996.82
2016-11-04T10:56:26.747Z,996.81
2016-11-04T10:57:26.764Z,996.83
2016-11-04T10:58:26.778Z,996.77
2016-11-04T10:59:26.799Z,996.79
2016-11-04T11:00:26.814Z,996.78
2016-11-04T11:01:26.830Z,996.79
2016-11-04T11:02:26.848Z,996.8
2016-11-04T11:03:26.861Z,996.74
2016-11-04T11:04:26.879Z,996.72
2016-11-04T11:05:26.897Z,996.66
2016-11-04T11:06:26.910Z,996.69
2016-11-04T11:07:26.929Z,996.67
2016-11-04T11:08:26.946Z,996.65
2016-11-04T11:09:26.960Z,996.63
2016-11-04T11:10:26.980Z,996.65
2016-11-04T11:11:26.998Z,996.61
2016-11-04T11:12:27.008Z,996.63
2016-11-04T11:13:27.027Z,996.62
2016-11-04T11:14:27.042Z,996.65
2016-11-04T11:15:27.059Z,996.61
2016-11-04T11:16:27.075Z,996.59
2016-11-04T11:17:27.094Z,996.59
2016-11-04T11:18:27.109Z,996.64
2016-11-04T11:19:27.128Z,996.6
2016-11-04T11:20:27.143Z,996.61
2016-11-04T11:21:27.163Z,996.59
2016-11-04T11:22:27.226Z,996.56
2016-11-04T11:23:27.193Z,996.56
2016-11-04T11:24:27.213Z,996.52
2016-11-04T11:25:27.227Z,996.51
2016-11-04T11:26:27.244Z,996.5
2016-11-04T11:27:27.260Z,996.49
2016-11-04T11:28:27.278Z,996.49
2016-11-04T11:29:27.294Z,996.51
2016-11-04T11:30:27.310Z,996.51
2016-11-04T11:31:27.328Z,996.51
2016-11-04T11:32:27.346Z,996.53
2016-11-04T11:33:27.359Z,996.5
2016-11-04T11:34:27.375Z,996.52
2016-11-04T11:35:27.392Z,996.51
2016-11-04T11:36:27.410Z,996.48
2016-11-04T11:37:27.426Z,996.48
2016-11-04T11:38:27.439Z,996.45
2016-11-04T11:39:27.467Z,996.46
2016-11-04T11:40:27.473Z,996.47
2016-11-04T11:41:27.493Z,996.41
2016-11-04T11:42:27.509Z,996.4
2016-11-04T11:43:27.527Z,996.37
2016-11-04T11:44:27.544Z,996.33
2016-11-04T11:45:27.559Z,996.33
2016-11-04T11:46:27.575Z,996.28
2016-11-04T11:47:27.593Z,996.31
2016-11-04T11:48:27.608Z,996.29
2016-11-04T11:49:27.626Z,996.25
2016-11-04T11:50:27.642Z,996.24
2016-11-04T11:51:27.664Z,996.22
2016-11-04T11:52:27.680Z,996.18
2016-11-04T11:53:27.696Z,996.21
2016-11-04T11:54:27.711Z,996.18
2016-11-04T11:55:27.727Z,996.19
2016-11-04T11:56:27.747Z,996.16
2016-11-04T11:57:27.761Z,996.14
2016-11-04T11:58:27.781Z,996.2
2016-11-04T11:59:27.797Z,996.14
2016-11-04T12:00:27.812Z,996.1
2016-11-04T12:01:27.829Z,996.06
2016-11-04T12:02:27.842Z,996.14
2016-11-04T12:03:27.862Z,996.12
2016-11-04T12:04:27.881Z,996.09
2016-11-04T12:05:27.899Z,996.11
2016-11-04T12:06:27.910Z,996.12
2016-11-04T12:07:27.928Z,996.11
2016-11-04T12:08:27.946Z,996.06
2016-11-04T12:09:27.971Z,996.04
2016-11-04T12:10:27.979Z,996.02
2016-11-04T12:11:27.998Z,996.02
2016-11-04T12:12:28.015Z,996.09
2016-11-04T12:13:28.031Z,996.08
2016-11-04T12:14:28.046Z,996.1
2016-11-04T12:15:28.062Z,996.04
2016-11-04T12:16:28.083Z,996.06
2016-11-04T12:17:28.110Z,996.08
2016-11-04T12:18:28.116Z,996.02
2016-11-04T12:19:28.130Z,996.03
2016-11-04T12:20:28.147Z,996.03
2016-11-04T12:21:28.167Z,996.01
2016-11-04T12:22:28.182Z,995.98
2016-11-04T12:23:28.200Z,995.97
2016-11-04T12:24:28.216Z,995.96
2016-11-04T12:25:28.231Z,995.98